createdAt,value
2023-07-09T00:01:58.367Z,23.83
2023-07-09T00:04:24.700Z,23.84
2023-07-09T00:06:50.908Z,23.83
2023-07-09T00:09:17.092Z,23.83
2023-07-09T00:11:43.255Z,23.83
2023-07-09T00:14:09.573Z,23.83
2023-07-09T00:16:35.773Z,23.83
2023-07-09T00:19:01.906Z,23.82
2023-07-09T00:21:28.653Z,23.81
2023-07-09T00:23:54.853Z,23.81
2023-07-09T00:26:20.991Z,23.81
2023-07-09T00:28:47.158Z,23.81
2023-07-09T00:31:13.346Z,23.80
2023-07-09T00:33:39.515Z,23.81
2023-07-09T00:36:05.812Z,23.81
2023-07-09T00:38:32.052Z,23.80
2023-07-09T00:40:58.207Z,23.80
2023-07-09T00:43:24.926Z,23.81
2023-07-09T00:45:51.260Z,23.79
2023-07-09T00:48:17.411Z,23.80
2023-07-09T00:50:43.579Z,23.80
2023-07-09T00:53:09.718Z,23.79
2023-07-09T00:55:35.858Z,23.79
2023-07-09T00:58:02.038Z,23.79
2023-07-09T01:00:28.174Z,23.80
2023-07-09T01:02:54.365Z,23.79
2023-07-09T01:05:20.666Z,23.79
2023-07-09T01:07:46.979Z,23.79
2023-07-09T01:10:13.143Z,23.78
2023-07-09T01:12:39.309Z,23.79
2023-07-09T01:15:05.471Z,23.79
2023-07-09T01:17:31.661Z,23.78
2023-07-09T01:19:57.883Z,23.79
2023-07-09T01:22:24.030Z,23.77
2023-07-09T01:24:50.173Z,23.78
2023-07-09T01:27:16.430Z,23.77
2023-07-09T01:29:44.143Z,23.77
2023-07-09T01:32:12.108Z,23.78
2023-07-09T01:34:38.280Z,23.77
2023-07-09T01:37:04.547Z,23.77
2023-07-09T01:39:30.735Z,23.78
2023-07-09T01:41:56.964Z,23.76
2023-07-09T01:44:23.092Z,23.77
2023-07-09T01:46:49.335Z,23.76
2023-07-09T01:49:15.602Z,23.76
2023-07-09T01:51:41.883Z,23.76
2023-07-09T01:54:08.040Z,23.76
2023-07-09T01:56:34.238Z,23.76
2023-07-09T01:59:00.397Z,23.76
2023-07-09T02:01:26.628Z,23.76
2023-07-09T02:03:52.891Z,23.75
2023-07-09T02:06:19.166Z,23.75
2023-07-09T02:08:45.337Z,23.75
2023-07-09T02:11:11.527Z,23.75
2023-07-09T02:13:37.877Z,23.75
2023-07-09T02:16:04.252Z,23.75
2023-07-09T02:18:30.695Z,23.74
2023-07-09T02:20:56.873Z,23.74
2023-07-09T02:23:23.014Z,23.75
2023-07-09T02:25:49.186Z,23.74
2023-07-09T02:28:15.336Z,23.75
2023-07-09T02:30:41.576Z,23.74
2023-07-09T02:33:07.847Z,23.75
2023-07-09T02:35:34.051Z,23.74
2023-07-09T02:38:00.334Z,23.74
2023-07-09T02:40:26.514Z,23.74
2023-07-09T02:42:52.659Z,23.74
2023-07-09T02:45:18.799Z,23.74
2023-07-09T02:47:45.274Z,23.73
2023-07-09T02:50:11.633Z,23.74
2023-07-09T02:52:37.790Z,23.73
2023-07-09T02:55:04.047Z,23.73
2023-07-09T02:57:30.382Z,23.73
2023-07-09T02:59:56.526Z,23.72
2023-07-09T03:02:22.746Z,23.72
2023-07-09T03:04:49.054Z,23.73
2023-07-09T03:07:15.249Z,23.73
2023-07-09T03:09:41.408Z,23.72
2023-07-09T03:12:07.564Z,23.71
2023-07-09T03:14:33.718Z,23.71
2023-07-09T03:17:00.084Z,23.71
2023-07-09T03:19:26.334Z,23.71
2023-07-09T03:21:52.534Z,23.71
2023-07-09T03:24:18.690Z,23.71
2023-07-09T03:26:44.832Z,23.71
2023-07-09T03:29:10.977Z,23.70
2023-07-09T03:31:37.323Z,23.71
2023-07-09T03:34:03.513Z,23.71
2023-07-09T03:36:29.649Z,23.70
2023-07-09T03:38:56.073Z,23.70
2023-07-09T03:41:22.224Z,23.70
2023-07-09T03:43:48.374Z,23.70
2023-07-09T03:46:14.538Z,23.70
2023-07-09T03:48:40.854Z,23.69
2023-07-09T03:51:07.100Z,23.69
2023-07-09T03:53:33.842Z,23.69
2023-07-09T03:56:00.043Z,23.69
2023-07-09T03:58:26.297Z,23.68
2023-07-09T04:00:52.699Z,23.68
2023-07-09T04:03:18.843Z,23.68
2023-07-09T04:05:44.988Z,23.67
2023-07-09T04:08:11.174Z,23.67
2023-07-09T04:10:37.308Z,23.67
2023-07-09T04:13:03.442Z,23.67
2023-07-09T04:15:29.589Z,23.67
2023-07-09T04:17:55.793Z,23.67
2023-07-09T04:20:22.017Z,23.66
2023-07-09T04:22:48.289Z,23.66
2023-07-09T04:25:14.422Z,23.67
2023-07-09T04:27:40.625Z,23.67
2023-07-09T04:30:06.809Z,23.67
2023-07-09T04:32:32.989Z,23.67
2023-07-09T04:34:59.183Z,23.67
2023-07-09T04:37:25.404Z,23.67
2023-07-09T04:39:51.562Z,23.65
2023-07-09T04:42:17.701Z,23.65
2023-07-09T04:44:44.036Z,23.66
2023-07-09T04:47:10.179Z,23.65
2023-07-09T04:49:36.334Z,23.64
2023-07-09T04:52:02.619Z,23.64
2023-07-09T04:54:28.821Z,23.64
2023-07-09T04:56:55.026Z,23.65
2023-07-09T04:59:21.270Z,23.65
2023-07-09T05:01:47.541Z,23.64
2023-07-09T05:04:13.787Z,23.64
2023-07-09T05:06:40.103Z,23.63
2023-07-09T05:09:06.246Z,23.64
2023-07-09T05:11:32.426Z,23.64
2023-07-09T05:13:58.708Z,23.64
2023-07-09T05:16:25.016Z,23.64
2023-07-09T05:18:51.239Z,23.63
2023-07-09T05:21:17.405Z,23.63
2023-07-09T05:23:43.565Z,23.63
2023-07-09T05:26:09.709Z,23.63
2023-07-09T05:28:36.042Z,23.63
2023-07-09T05:31:02.268Z,23.63
2023-07-09T05:33:28.509Z,23.63
2023-07-09T05:35:54.685Z,23.61
2023-07-09T05:38:20.813Z,23.63
2023-07-09T05:40:46.952Z,23.62
2023-07-09T05:43:13.119Z,23.62
2023-07-09T05:45:39.255Z,23.63
2023-07-09T05:48:05.441Z,23.63
2023-07-09T05:50:31.790Z,23.63
2023-07-09T05:52:58.001Z,23.63
2023-07-09T05:55:24.252Z,23.61
2023-07-09T05:57:50.488Z,23.62
2023-07-09T06:00:16.726Z,23.63
2023-07-09T06:02:42.924Z,23.62
2023-07-09T06:05:09.682Z,23.61
2023-07-09T06:07:35.863Z,23.61
2023-07-09T06:10:02.043Z,23.61
2023-07-09T06:12:28.422Z,23.63
2023-07-09T06:14:54.621Z,23.61
2023-07-09T06:17:20.774Z,23.62
2023-07-09T06:19:47.001Z,23.61
2023-07-09T06:22:13.191Z,23.62
2023-07-09T06:24:39.434Z,23.63
2023-07-09T06:27:05.611Z,23.62
2023-07-09T06:29:31.795Z,23.63
2023-07-09T06:31:57.954Z,23.63
2023-07-09T06:34:24.294Z,23.63
2023-07-09T06:36:50.418Z,23.63
2023-07-09T06:39:16.551Z,23.63
2023-07-09T06:41:43.209Z,23.63
2023-07-09T06:44:09.358Z,23.62
2023-07-09T06:46:35.502Z,23.62
2023-07-09T06:49:01.673Z,23.63
2023-07-09T06:51:27.818Z,23.63
2023-07-09T06:53:54.023Z,23.63
2023-07-09T06:56:20.346Z,23.64
2023-07-09T06:58:46.487Z,23.63
2023-07-09T07:01:12.627Z,23.63
2023-07-09T07:03:38.864Z,23.64
2023-07-09T07:06:05.292Z,23.65
2023-07-09T07:08:31.755Z,23.65
2023-07-09T07:10:57.924Z,23.64
2023-07-09T07:13:24.163Z,23.64
2023-07-09T07:15:50.365Z,23.66
2023-07-09T07:18:16.551Z,23.65
2023-07-09T07:20:42.697Z,23.65
2023-07-09T07:23:08.858Z,23.65
2023-07-09T07:25:35.028Z,23.65
2023-07-09T07:28:01.187Z,23.66
2023-07-09T07:30:27.381Z,23.66
2023-07-09T07:32:53.623Z,23.66
2023-07-09T07:35:19.813Z,23.67
2023-07-09T07:37:46.138Z,23.67
2023-07-09T07:40:12.306Z,23.68
2023-07-09T07:42:38.518Z,23.68
2023-07-09T07:45:04.662Z,23.67
2023-07-09T07:47:31.359Z,23.68
2023-07-09T07:49:57.538Z,23.68
2023-07-09T07:52:23.679Z,23.70
2023-07-09T07:54:49.859Z,23.69
2023-07-09T07:57:16.026Z,23.70
2023-07-09T07:59:42.399Z,23.71
2023-07-09T08:02:08.596Z,23.71
2023-07-09T08:04:34.776Z,23.71
2023-07-09T08:07:00.927Z,23.72
2023-07-09T08:09:28.081Z,23.73
2023-07-09T08:11:54.217Z,23.73
2023-07-09T08:14:20.408Z,23.73
2023-07-09T08:16:46.661Z,23.74
2023-07-09T08:19:12.865Z,23.74
2023-07-09T08:21:39.073Z,23.75
2023-07-09T08:24:05.259Z,23.76
2023-07-09T08:26:31.401Z,23.76
2023-07-09T08:28:57.747Z,23.76
2023-07-09T08:31:23.955Z,23.76
2023-07-09T08:33:50.150Z,23.78
2023-07-09T08:36:16.335Z,23.77
2023-07-09T08:38:42.521Z,23.78
2023-07-09T08:41:08.673Z,23.78
2023-07-09T08:43:35.028Z,23.79
2023-07-09T08:46:01.221Z,23.80
2023-07-09T08:48:27.399Z,23.80
2023-07-09T08:50:53.525Z,23.81
2023-07-09T08:53:19.704Z,23.81
2023-07-09T08:55:45.848Z,23.81
2023-07-09T08:58:12.006Z,23.83
2023-07-09T09:00:38.204Z,23.84
2023-07-09T09:03:04.444Z,23.84
2023-07-09T09:05:30.769Z,23.85
2023-07-09T09:07:56.969Z,23.86
2023-07-09T09:10:23.127Z,23.87
2023-07-09T09:12:49.326Z,23.87
2023-07-09T09:15:16.074Z,23.88
2023-07-09T09:17:42.265Z,23.88
2023-07-09T09:20:08.431Z,23.89
2023-07-09T09:22:34.586Z,23.89
2023-07-09T09:25:00.757Z,23.90
2023-07-09T09:27:27.118Z,23.92
2023-07-09T09:29:53.301Z,23.92
2023-07-09T09:32:19.445Z,23.93
2023-07-09T09:34:45.589Z,23.94
2023-07-09T09:37:11.846Z,23.95
2023-07-09T09:39:38.040Z,23.94
2023-07-09T09:42:04.253Z,23.95
2023-07-09T09:44:30.990Z,23.96
2023-07-09T09:46:58.614Z,23.97
2023-07-09T09:49:26.736Z,23.99
2023-07-09T09:51:53.396Z,23.99
2023-07-09T09:54:19.525Z,24.01
2023-07-09T09:56:45.784Z,24.01
2023-07-09T09:59:11.942Z,24.01
2023-07-09T10:01:38.147Z,24.02
2023-07-09T10:04:04.309Z,24.04
2023-07-09T10:06:30.457Z,24.04
2023-07-09T10:08:56.647Z,24.05
2023-07-09T10:11:22.984Z,24.06
2023-07-09T10:13:49.245Z,24.06
2023-07-09T10:16:15.406Z,24.07
2023-07-09T10:18:41.689Z,24.08
2023-07-09T10:21:07.951Z,24.08
2023-07-09T10:23:34.143Z,24.10
2023-07-09T10:26:00.287Z,24.09
2023-07-09T10:28:26.477Z,24.10
2023-07-09T10:30:52.644Z,24.10
2023-07-09T10:33:18.970Z,24.12
2023-07-09T10:35:45.178Z,24.12
2023-07-09T10:38:11.350Z,24.14
2023-07-09T10:40:37.509Z,24.15
2023-07-09T10:43:03.673Z,24.15
2023-07-09T10:45:29.836Z,24.17
2023-07-09T10:47:56.019Z,24.18
2023-07-09T10:50:22.228Z,24.20
2023-07-09T10:52:48.379Z,24.20
2023-07-09T10:55:14.536Z,24.21
2023-07-09T10:57:40.767Z,24.21
2023-07-09T11:00:06.917Z,24.23
2023-07-09T11:02:33.086Z,24.24
2023-07-09T11:04:59.300Z,24.24
2023-07-09T11:07:25.458Z,24.27
2023-07-09T11:09:51.626Z,24.27
2023-07-09T11:12:17.870Z,24.29
2023-07-09T11:14:44.072Z,24.30
2023-07-09T11:17:10.313Z,24.31
2023-07-09T11:19:36.458Z,24.32
2023-07-09T11:22:02.618Z,24.33
2023-07-09T11:24:28.890Z,24.35
2023-07-09T11:26:55.076Z,24.36
2023-07-09T11:29:21.222Z,24.35
2023-07-09T11:31:47.477Z,24.36
2023-07-09T11:34:13.694Z,24.37
2023-07-09T11:36:39.873Z,24.38
2023-07-09T11:39:06.045Z,24.39
2023-07-09T11:41:32.292Z,24.41
2023-07-09T11:43:58.432Z,24.41
2023-07-09T11:46:24.570Z,24.43
2023-07-09T11:48:50.763Z,24.43
2023-07-09T11:51:16.893Z,24.44
2023-07-09T11:53:43.065Z,24.46
2023-07-09T11:56:09.235Z,24.46
2023-07-09T11:58:35.382Z,24.48
2023-07-09T12:01:01.514Z,24.48
2023-07-09T12:03:27.745Z,24.49
2023-07-09T12:05:53.920Z,24.50
2023-07-09T12:08:20.078Z,24.50
2023-07-09T12:10:46.354Z,24.52
2023-07-09T12:13:12.559Z,24.54
2023-07-09T12:15:38.716Z,24.55
2023-07-09T12:18:04.980Z,24.56
2023-07-09T12:20:31.142Z,24.57
2023-07-09T12:22:57.284Z,24.58
2023-07-09T12:25:23.901Z,24.59
2023-07-09T12:27:50.067Z,24.58
2023-07-09T12:30:16.251Z,24.61
2023-07-09T12:32:42.415Z,24.61
2023-07-09T12:35:08.551Z,24.62
2023-07-09T12:37:34.744Z,24.65
2023-07-09T12:40:00.923Z,24.65
2023-07-09T12:42:27.103Z,24.66
2023-07-09T12:44:53.245Z,24.69
2023-07-09T12:47:19.397Z,24.69
2023-07-09T12:49:45.557Z,24.70
2023-07-09T12:52:11.744Z,24.71
2023-07-09T12:54:37.908Z,24.72
2023-07-09T12:57:04.075Z,24.73
2023-07-09T12:59:30.248Z,24.75
2023-07-09T13:01:57.037Z,24.75
2023-07-09T13:04:25.074Z,24.77
2023-07-09T13:06:52.078Z,24.79
2023-07-09T13:09:18.247Z,24.80
2023-07-09T13:11:44.377Z,24.80
2023-07-09T13:14:10.657Z,24.82
2023-07-09T13:16:36.991Z,24.82
2023-07-09T13:19:03.173Z,24.84
2023-07-09T13:21:29.319Z,24.84
2023-07-09T13:23:55.529Z,24.85
2023-07-09T13:26:21.722Z,24.86
2023-07-09T13:28:47.860Z,24.87
2023-07-09T13:31:14.043Z,24.89
2023-07-09T13:33:40.221Z,24.90
2023-07-09T13:36:06.359Z,24.91
2023-07-09T13:38:32.499Z,24.92
2023-07-09T13:40:58.664Z,24.93
2023-07-09T13:43:24.797Z,24.94
2023-07-09T13:45:50.950Z,24.95
2023-07-09T13:48:17.237Z,24.95
2023-07-09T13:50:43.511Z,24.97
2023-07-09T13:53:09.698Z,24.97
2023-07-09T13:55:35.843Z,24.98
2023-07-09T13:58:01.971Z,24.99
2023-07-09T14:00:28.131Z,25.01
2023-07-09T14:02:54.407Z,25.01
2023-07-09T14:05:20.648Z,25.01
2023-07-09T14:07:46.919Z,25.04
2023-07-09T14:10:13.133Z,25.06
2023-07-09T14:12:39.324Z,25.06
2023-07-09T14:15:05.499Z,25.06
2023-07-09T14:17:31.863Z,25.07
2023-07-09T14:19:58.147Z,25.07
2023-07-09T14:22:24.378Z,25.09
2023-07-09T14:24:50.580Z,25.11
2023-07-09T14:27:16.725Z,25.11
2023-07-09T14:29:45.028Z,25.13
2023-07-09T14:32:11.823Z,25.13
2023-07-09T14:34:37.972Z,25.15
2023-07-09T14:37:04.176Z,25.16
2023-07-09T14:39:30.354Z,25.16
2023-07-09T14:41:56.513Z,25.16
2023-07-09T14:44:22.710Z,25.17
2023-07-09T14:46:48.963Z,25.17
2023-07-09T14:49:15.184Z,25.18
2023-07-09T14:51:41.358Z,25.17
2023-07-09T14:54:07.515Z,25.20
2023-07-09T14:56:33.694Z,25.20
2023-07-09T14:58:59.868Z,25.21
2023-07-09T15:01:26.069Z,25.21
2023-07-09T15:03:52.523Z,25.21
2023-07-09T15:06:18.717Z,25.21
2023-07-09T15:08:44.872Z,25.23
2023-07-09T15:11:11.024Z,25.24
2023-07-09T15:13:37.390Z,25.24
2023-07-09T15:16:03.615Z,25.25
2023-07-09T15:18:29.813Z,25.25
2023-07-09T15:20:55.998Z,25.26
2023-07-09T15:23:22.126Z,25.26
2023-07-09T15:25:48.280Z,25.26
2023-07-09T15:28:14.431Z,25.28
2023-07-09T15:30:40.578Z,25.27
2023-07-09T15:33:09.596Z,25.28
2023-07-09T15:35:37.002Z,25.32
2023-07-09T15:38:03.165Z,25.33
2023-07-09T15:40:29.325Z,25.33
2023-07-09T15:42:55.500Z,25.34
2023-07-09T15:45:21.653Z,25.34
2023-07-09T15:47:47.839Z,25.35
2023-07-09T15:50:17.127Z,25.35
2023-07-09T15:52:43.327Z,25.34
2023-07-09T15:55:09.492Z,25.35
2023-07-09T15:57:42.175Z,25.34
2023-07-09T16:00:09.040Z,25.34
2023-07-09T16:02:35.356Z,25.35
2023-07-09T16:05:01.628Z,25.32
2023-07-09T16:07:27.777Z,25.32
2023-07-09T16:09:53.961Z,25.33
2023-07-09T16:12:20.686Z,25.34
2023-07-09T16:14:46.837Z,25.34
2023-07-09T16:17:12.969Z,25.34
2023-07-09T16:19:39.134Z,25.35
2023-07-09T16:22:08.434Z,25.34
2023-07-09T16:24:34.610Z,25.33
2023-07-09T16:27:00.815Z,25.33
2023-07-09T16:34:54.753Z,25.32
2023-07-09T16:37:26.679Z,25.31
2023-07-09T16:39:52.857Z,25.31
2023-07-09T16:42:19.023Z,25.30
2023-07-09T16:44:45.176Z,25.30
2023-07-09T16:47:11.330Z,25.31
2023-07-09T16:49:37.524Z,25.30
2023-07-09T16:52:03.675Z,25.30
2023-07-09T16:54:29.827Z,25.28
2023-07-09T16:56:56.005Z,25.27
2023-07-09T16:59:24.114Z,25.27
2023-07-09T17:01:50.262Z,25.27
2023-07-09T17:04:16.423Z,25.26
2023-07-09T17:06:42.563Z,25.27
2023-07-09T17:09:08.710Z,25.27
2023-07-09T17:11:34.874Z,25.26
2023-07-09T17:14:01.056Z,25.27
2023-07-09T17:16:27.272Z,25.28
2023-07-09T17:18:53.455Z,25.27
2023-07-09T17:21:19.621Z,25.26
2023-07-09T17:23:48.539Z,25.24
2023-07-09T17:26:14.727Z,25.25
2023-07-09T17:28:40.865Z,25.22
2023-07-09T17:31:07.006Z,25.22
2023-07-09T17:33:33.204Z,25.20
2023-07-09T17:35:59.352Z,25.21
2023-07-09T17:38:25.516Z,25.21
2023-07-09T17:40:51.674Z,25.21
2023-07-09T17:43:17.847Z,25.21
2023-07-09T17:45:44.005Z,25.20
2023-07-09T17:48:10.206Z,25.20
2023-07-09T17:50:36.382Z,25.20
2023-07-09T17:53:02.580Z,25.19
2023-07-09T17:55:28.789Z,25.19
2023-07-09T17:57:54.958Z,25.19
2023-07-09T18:00:21.168Z,25.20
2023-07-09T18:02:47.381Z,25.18
2023-07-09T18:05:13.544Z,25.19
2023-07-09T18:07:39.688Z,25.19
2023-07-09T18:10:07.287Z,25.20
2023-07-09T18:12:34.085Z,25.19
2023-07-09T18:15:00.222Z,25.19
2023-07-09T18:17:26.425Z,25.19
2023-07-09T18:19:52.607Z,25.18
2023-07-09T18:22:18.790Z,25.18
2023-07-09T18:24:44.999Z,25.17
2023-07-09T18:27:12.170Z,25.17
2023-07-09T18:29:38.846Z,25.17
2023-07-09T18:32:05.009Z,25.16
2023-07-09T18:34:31.216Z,25.16
2023-07-09T18:36:57.363Z,25.14
2023-07-09T18:39:23.510Z,25.16
2023-07-09T18:41:49.668Z,25.15
2023-07-09T18:44:15.898Z,25.14
2023-07-09T18:46:42.199Z,25.15
2023-07-09T18:49:08.382Z,25.14
2023-07-09T18:51:34.540Z,25.15
2023-07-09T18:54:00.715Z,25.14
2023-07-09T18:56:26.857Z,25.15
2023-07-09T18:58:52.995Z,25.14
2023-07-09T19:01:19.282Z,25.14
2023-07-09T19:03:45.728Z,25.14
2023-07-09T19:06:11.931Z,25.14
2023-07-09T19:08:38.104Z,25.13
2023-07-09T19:11:04.277Z,25.13
2023-07-09T19:13:30.546Z,25.13
2023-07-09T19:15:56.819Z,25.12
2023-07-09T19:18:22.975Z,25.12
2023-07-09T19:20:49.129Z,25.11
2023-07-09T19:23:15.312Z,25.11
2023-07-09T19:25:42.673Z,25.11
2023-07-09T19:28:10.944Z,25.10
2023-07-09T19:30:37.119Z,25.09
2023-07-09T19:33:03.316Z,25.10
2023-07-09T19:35:29.509Z,25.09
2023-07-09T19:37:59.221Z,25.09
2023-07-09T19:40:25.374Z,25.09
2023-07-09T19:42:51.553Z,25.08
2023-07-09T19:45:17.722Z,25.08
2023-07-09T19:47:43.953Z,25.08
2023-07-09T19:50:10.131Z,25.07
2023-07-09T19:52:36.308Z,25.08
2023-07-09T19:55:02.445Z,25.07
2023-07-09T19:57:28.582Z,25.07
2023-07-09T19:59:54.734Z,25.07
2023-07-09T20:02:20.980Z,25.07
2023-07-09T20:04:47.162Z,25.06
2023-07-09T20:07:13.328Z,25.07
2023-07-09T20:09:39.467Z,25.06
2023-07-09T20:12:05.606Z,25.07
2023-07-09T20:14:31.769Z,25.05
2023-07-09T20:16:57.923Z,25.05
2023-07-09T20:19:24.093Z,25.05
2023-07-09T20:21:50.294Z,25.05
2023-07-09T20:24:16.454Z,25.05
2023-07-09T20:26:42.604Z,25.05
2023-07-09T20:29:08.759Z,25.04
2023-07-09T20:31:34.998Z,25.04
2023-07-09T20:34:01.265Z,25.04
2023-07-09T20:36:29.235Z,25.04
2023-07-09T20:38:55.373Z,25.03
2023-07-09T20:41:21.513Z,25.02
2023-07-09T20:43:47.671Z,25.03
2023-07-09T20:46:13.819Z,25.02
2023-07-09T20:48:39.959Z,25.02
2023-07-09T20:51:06.213Z,25.01
2023-07-09T20:53:32.358Z,25.02
2023-07-09T20:55:58.521Z,25.02
2023-07-09T20:58:24.732Z,25.01
2023-07-09T21:00:50.982Z,25.01
2023-07-09T21:03:17.283Z,25.01
2023-07-09T21:05:43.505Z,25.00
2023-07-09T21:08:11.712Z,25.01
2023-07-09T21:10:37.877Z,24.99
2023-07-09T21:13:07.102Z,25.00
2023-07-09T21:15:33.239Z,25.00
2023-07-09T21:17:59.480Z,24.99
2023-07-09T21:20:25.653Z,24.99
2023-07-09T21:22:51.777Z,24.99
2023-07-09T21:25:17.913Z,24.98
2023-07-09T21:27:44.124Z,24.98
2023-07-09T21:30:10.326Z,24.98
2023-07-09T21:32:36.558Z,24.98
2023-07-09T21:35:02.767Z,24.97
2023-07-09T21:37:28.917Z,24.97
2023-07-09T21:39:55.085Z,24.97
2023-07-09T21:42:21.268Z,24.96
2023-07-09T21:44:47.414Z,24.97
2023-07-09T21:47:13.581Z,24.95
2023-07-09T21:49:39.767Z,24.95
2023-07-09T21:52:05.935Z,24.95
2023-07-09T21:57:01.190Z,24.94
2023-07-09T21:59:27.331Z,24.93
2023-07-09T22:01:53.517Z,24.93
2023-07-09T22:04:19.760Z,24.94
2023-07-09T22:06:45.904Z,24.94
2023-07-09T22:09:12.091Z,24.93
2023-07-09T22:11:38.249Z,24.93
2023-07-09T22:14:04.451Z,24.92
2023-07-09T22:16:30.715Z,24.92
2023-07-09T22:18:56.930Z,24.91
2023-07-09T22:21:23.116Z,24.92
2023-07-09T22:23:49.266Z,24.92
2023-07-09T22:26:15.413Z,24.92
2023-07-09T22:28:41.564Z,24.92
2023-07-09T22:31:07.760Z,24.90
2023-07-09T22:33:34.026Z,24.90
2023-07-09T22:36:00.192Z,24.90
2023-07-09T22:38:26.349Z,24.90
2023-07-09T22:40:52.542Z,24.89
2023-07-09T22:43:18.693Z,24.88
2023-07-09T22:45:44.940Z,24.90
2023-07-09T22:48:11.186Z,24.88
2023-07-09T22:50:37.342Z,24.88
2023-07-09T22:53:03.519Z,24.89
2023-07-09T22:55:29.682Z,24.87
2023-07-09T22:57:58.650Z,24.87
2023-07-09T23:00:24.811Z,24.87
2023-07-09T23:02:51.089Z,24.87
2023-07-09T23:05:17.327Z,24.87
2023-07-09T23:07:43.474Z,24.86
2023-07-09T23:10:09.629Z,24.86
2023-07-09T23:12:35.761Z,24.85
2023-07-09T23:15:01.919Z,24.86
2023-07-09T23:17:28.177Z,24.85
2023-07-09T23:19:54.549Z,24.85
2023-07-09T23:22:20.710Z,24.85
2023-07-09T23:24:46.897Z,24.84
2023-07-09T23:27:13.057Z,24.85
2023-07-09T23:29:39.193Z,24.83
2023-07-09T23:32:05.377Z,24.83
2023-07-09T23:34:31.539Z,24.83
2023-07-09T23:36:57.683Z,24.83
2023-07-09T23:39:24.371Z,24.83
2023-07-09T23:41:50.513Z,24.83
2023-07-09T23:44:16.657Z,24.82
2023-07-09T23:46:42.871Z,24.81
2023-07-09T23:49:11.448Z,24.82
2023-07-09T23:51:37.789Z,24.81
2023-07-09T23:54:03.972Z,24.81
2023-07-09T23:56:30.145Z,24.81
2023-07-09T23:58:56.309Z,24.80
